Aérodrome :
LOGIN :

S'inscrire | Disclaimer

   EN    FR    IT 

 










Légende :    VFR   VFR Marginal   IFR   IFR Intensif   IFR Très Intensif
Visi : 
Plafond : 
>= 8 km
>= 3000ft
5 à 8 km
1000 à 3000 ft
1500m à 5 km
500 à 1000 ft
800 à 1500m
200 à 500 ft
< 800m
< 200 ft
Symboles :   Orages  Brouillard  Fortes neiges  Fortes précipitations  Vent > 20 kt
SIGMETs :   Divers  Orages  Givrage  Turbulence  Onde Orograph.  Cendres Volcan.







- Altitude de l'aérodrome : 13 ft
- Code IATA : LYX
- Voir les cartes d'approche


EGMD - Lydd

DERNIER METAR :
  • 241150Z 20021KT 9999 SCT004 BKN010 14/12 Q0995

METARs EXPIRÉS :
  • 241120Z 20017KT 9999 FEW028 BKN035 14/12 Q0994
  • 241050Z 17015KT 9999 BKN035 17/12 Q0993
  • 241020Z 16016KT 9999 FEW032 17/13 Q0993
  • 240950Z 14013KT CAVOK 16/12 Q0993
  • 240920Z 14012KT 9999 FEW044 16/13 Q0993

TAF TAF EGMD
Valide du 24 à 12h jusqu'au 24 à 21h UTC


241054Z 2412/2421 20015KT 9999 SCT030
TEMPO 2412/2418 18017G27KT 7000 SHRA BKN014 BKN025CB
PROB30
TEMPO 2412/2418 4000 RA
BECMG 2417/2420 17004KT
ATIS : +44 1797 322 422
Pas de NOTAMs connus pour ce terrain.



MET'MAP, la Météo Aéronautique d'un coup d'oeil ! - Copyright ORBIFLY Décembre 2007 - Disclaimer

ORBIFLY MET'MAP TEAM :

Programmation & Développement : Alexandra Zaïnal
Conception & Développement : Baudouin d'Aumeries
Co-Programmation & Développement : Marc-Olivier Méhu
Soutien technique & logistique : Manuel Goepfert

Contact : metmap@orbifly.com




SOURCES & CREDITS :

   NOAA